Latest Weather Observations for Tidbinbilla

IDN60801

Issued at 6:23 pm EST Thursday 7 May 2026 (issued every 10 minutes, with the page automatically refreshed every 10 minutes)

About weather observations | Map of weather stations | Latest weather observations for NSW | Other Formats
Station Details ID: 250069 Name: TIDBINBILLA (PCS) Lat: -35.46 Lon: 148.94 Height: 883.0 m

Portable automatic weather stations (PAWS) are operated by other organisations, such as Fire and Emergency Services, and are included here by agreement. Portable stations may be deployed to a location for a short period and their location may be subject to change without notice. Wind observations from these stations are provided from heights of either three (3) or ten (10) metres above ground level (AGL).

Data from the previous 72 hours. | See also: Recent months for locations in New South Wales
Date/Time
EST
Temp
°C
App
Temp
°C
Dew
Point
°C
Rel
Hum
%
Delta-T
°C
Wind Press
QNH
hPa
Press
MSL
hPa
Rain since
9am
mm
Dir  Spd
km/h
Gust
km/h
Spd
kts
Gust
kts
07/06:00pm 4.2 -1.8 -1.5 66 2.2 SW 20 22 11 12 1019.5 - 0.0
07/05:30pm 3.9 -0.6 -0.3 74 1.7 SW 13 17 7 9 1019.1 - 0.0
07/05:00pm 4.7 0.2 -0.2 70 2.0 SW 13 15 7 8 1018.9 - 0.0
07/04:00pm 4.9 -1.9 -1.9 61 2.6 SSW 24 28 13 15 1018.0 - 0.0
07/03:30pm 7.0 -1.0 -2.0 52 3.5 SSW 30 35 16 19 1017.5 - 0.0
07/03:00pm 7.9 0.7 -2.2 49 4.0 SW 26 33 14 18 1017.3 - 0.0
07/02:30pm 8.0 0.3 -3.0 45 4.3 SW 28 41 15 22 1017.0 - 0.0
07/02:00pm 8.8 1.8 -3.4 42 4.7 SW 24 30 13 16 1016.7 - 0.0
07/01:30pm 7.6 -0.1 -3.2 46 4.1 SW 28 33 15 18 1016.8 - 0.0
07/01:00pm 8.0 1.0 -3.4 44 4.4 SSW 24 33 13 18 1016.9 - 0.0
07/12:30pm 8.1 0.4 -3.1 45 4.3 SSW 28 43 15 23 1016.6 - 0.0
07/12:00pm 7.5 -2.0 -3.9 44 4.3 SSW 37 46 20 25 1016.3 - 0.0
07/11:30am 7.4 -1.0 -2.8 48 3.9 SW 32 35 17 19 1016.6 - 0.0
07/11:00am 6.6 -3.0 -4.2 46 4.0 SW 37 48 20 26 1016.1 - 0.0
07/10:00am 6.4 0.1 -3.9 47 3.8 SSW 20 28 11 15 1016.5 - 0.0
07/09:30am 5.7 -1.0 -3.8 50 3.5 SSW 22 30 12 16 1016.5 - 0.0
07/09:00am 5.5 -1.6 -4.1 50 3.5 SW 24 32 13 17 1015.7 - 0.2
07/08:00am 5.3 -2.3 -5.3 46 3.8 SW 26 33 14 18 1014.9 - 0.2
07/07:30am 5.3 -1.7 -3.4 53 3.2 SSW 24 32 13 17 1014.3 - 0.2
07/07:00am 4.5 -2.6 -1.5 65 2.3 SW 26 35 14 19 1013.5 - 0.2
07/06:30am 5.1 -3.9 0.1 70 2.0 SW 37 50 20 27 1013.0 - 0.2
07/06:00am 6.8 -0.5 2.7 75 1.8 SW 30 43 16 23 1012.7 - 0.0
07/05:30am 7.5 3.0 4.3 80 1.5 WSW 17 28 9 15 1012.9 - 0.0
07/04:30am 7.3 4.5 5.0 85 1.1 NW 9 17 5 9 1013.6 - 0.0
07/03:30am 7.7 4.7 4.2 78 1.6 WSW 9 15 5 8 1014.4 - 0.0
07/03:00am 7.8 4.4 3.8 76 1.8 WSW 11 24 6 13 1015.0 - 0.0
07/02:30am 7.7 4.2 3.3 74 2.0 WSW 11 19 6 10 1015.5 - 0.0
07/02:00am 7.3 2.5 2.7 72 2.0 SW 17 22 9 12 1015.7 - 0.0
07/01:30am 7.5 2.1 2.5 70 2.2 SW 20 26 11 14 1016.2 - 0.0
07/01:00am 7.3 1.4 2.0 69 2.3 SW 22 28 12 15 1016.4 - 0.0
07/12:30am 7.3 3.2 2.0 69 2.3 SSW 13 20 7 11 1016.8 - 0.0
07/12:00am 7.6 2.3 1.8 66 2.5 SSW 19 28 10 15 1016.9 - 0.0
 
Date/Time
EST
Temp
°C
App
Temp
°C
Dew
Point
°C
Rel
Hum
%
Delta-T
°C
Wind Press
QNH
hPa
Press
MSL
hPa
Rain since
9am
mm
Dir  Spd
km/h
Gust
km/h
Spd
kts
Gust
kts
06/11:30pm 7.9 3.0 2.2 67 2.5 SSW 17 30 9 16 1017.4 - 0.0
06/11:00pm 8.1 3.3 2.6 68 2.4 S 17 20 9 11 1017.4 - 0.0
06/10:30pm 8.2 5.0 2.9 69 2.4 S 9 17 5 9 1017.8 - 0.0
06/10:00pm 8.7 3.7 3.4 69 2.4 SSW 19 24 10 13 1018.1 - 0.0
06/09:30pm 9.1 5.5 2.9 65 2.8 SSW 11 20 6 11 1018.0 - 0.0
06/09:00pm 9.1 5.6 3.5 68 2.6 SSW 11 15 6 8 1018.3 - 0.0
06/08:30pm 9.0 4.8 3.9 70 2.3 SW 15 19 8 10 1018.6 - 0.0
06/06:00pm 10.1 5.0 5.9 75 2.0 SW 22 26 12 14 1018.5 - 0.0
06/05:30pm 10.5 7.2 6.5 76 2.0 SW 13 15 7 8 1018.5 - 0.0
06/05:00pm 11.5 10.2 7.5 76 2.0 W 4 6 2 3 1018.4 - 0.0
06/04:30pm 12.6 11.2 7.3 70 2.7 N 4 6 2 3 1018.5 - 0.0
06/04:00pm 14.2 11.1 7.2 63 3.6 N 13 19 7 10 1018.7 - 0.0
06/03:30pm 14.9 11.0 7.1 59 4.0 N 17 20 9 11 1018.9 - 0.0
06/03:00pm 15.3 11.6 6.4 55 4.5 N 15 19 8 10 1019.1 - 0.0
06/02:30pm 15.2 11.1 6.4 55 4.5 N 17 20 9 11 1019.2 - 0.0
06/02:00pm 15.4 11.5 7.3 58 4.2 N 17 20 9 11 1019.7 - 0.0
06/01:30pm 16.3 13.2 7.4 55 4.7 N 13 15 7 8 1020.0 - 0.0
06/01:00pm 15.7 12.3 7.7 59 4.2 N 15 20 8 11 1020.6 - 0.0
06/12:30pm 15.7 12.3 7.7 59 4.2 N 15 20 8 11 1021.0 - 0.0
06/12:00pm 15.0 10.7 7.0 59 4.1 N 19 22 10 12 1021.7 - 0.0
06/11:30am 14.7 11.2 7.1 60 3.9 NNE 15 20 8 11 1022.4 - 0.0
06/11:00am 14.2 10.6 6.7 60 3.8 N 15 17 8 9 1022.8 - 0.0
06/10:30am 14.2 11.5 7.4 63 3.5 N 11 13 6 7 1023.0 - 0.0
06/10:00am 14.4 12.6 7.8 64 3.4 N 7 9 4 5 1023.3 - 0.0
06/09:30am 13.9 11.8 5.6 57 4.1 N 6 7 3 4 1023.5 - 0.0
06/09:00am 12.9 12.1 8.1 72 2.5 N 2 4 1 2 1023.7 - 0.0
06/08:30am 12.3 11.9 8.4 77 2.0 CALM 0 4 0 2 1023.7 - 0.0
06/08:00am 10.2 9.3 6.2 76 2.0 CALM 0 2 0 1 1023.4 - 0.0
06/07:30am 8.5 7.5 5.8 83 1.3 CALM 0 0 0 0 1023.2 - 0.0
06/07:00am 6.5 5.5 5.4 93 0.5 CALM 0 0 0 0 1023.1 - 0.0
06/06:30am 6.6 5.2 5.4 92 0.6 NNE 2 4 1 2 1023.0 - 0.0
06/06:00am 6.7 5.3 5.6 93 0.5 S 2 4 1 2 1022.8 - 0.0
06/05:30am 7.6 6.6 5.5 86 1.0 CALM 0 4 0 2 1022.7 - 0.0
06/05:00am 7.4 5.6 5.6 88 0.8 S 4 6 2 3 1022.8 - 0.0
06/04:30am 7.6 6.6 5.6 87 0.9 CALM 0 2 0 1 1022.7 - 0.0
06/04:00am 7.8 6.4 5.6 86 1.0 SW 2 2 1 1 1022.7 - 0.0
06/03:30am 7.7 6.3 5.6 86 1.0 SSW 2 4 1 2 1022.8 - 0.0
06/03:00am 7.1 5.4 5.7 91 0.7 S 4 6 2 3 1023.0 - 0.0
06/02:00am 7.9 6.9 5.8 86 1.0 CALM 0 2 0 1 1023.3 - 0.0
06/01:30am 8.8 6.7 5.9 82 1.4 SSE 6 7 3 4 1023.6 - 0.0
06/01:00am 8.4 5.7 5.6 82 1.3 S 9 11 5 6 1023.8 - 0.0
06/12:30am 8.1 6.0 5.6 84 1.2 S 6 7 3 4 1023.9 - 0.0
06/12:00am 7.6 6.3 6.0 90 0.8 S 2 4 1 2 1024.0 - 0.0
 
Date/Time
EST
Temp
°C
App
Temp
°C
Dew
Point
°C
Rel
Hum
%
Delta-T
°C
Wind Press
QNH
hPa
Press
MSL
hPa
Rain since
9am
mm
Dir  Spd
km/h
Gust
km/h
Spd
kts
Gust
kts
05/11:30pm 7.5 5.2 5.9 90 0.8 S 7 7 4 4 1024.0 - 0.0
05/11:00pm 7.3 5.0 5.7 89 0.8 S 7 7 4 4 1024.1 - 0.0
05/10:30pm 7.5 5.8 5.9 90 0.8 S 4 6 2 3 1024.3 - 0.0
05/10:00pm 7.9 6.9 5.7 86 1.0 CALM 0 0 0 0 1024.3 - 0.0
05/09:30pm 8.3 7.0 5.8 84 1.2 SSW 2 4 1 2 1024.1 - 0.0
05/09:00pm 8.5 6.3 5.4 81 1.5 S 6 6 3 3 1023.7 - 0.0
05/08:30pm 9.0 7.9 5.0 76 1.9 CALM 0 0 0 0 1023.7 - 0.0
05/08:00pm 10.1 8.6 5.0 70 2.4 S 2 4 1 2 1023.3 - 0.0
05/07:30pm 10.9 8.5 4.3 64 3.1 SSE 6 9 3 5 1022.9 - 0.0
05/07:00pm 11.0 6.5 4.1 62 3.2 S 17 20 9 11 1022.5 - 0.0
05/06:30pm 11.3 6.8 4.3 62 3.3 S 17 19 9 10 1022.1 - 0.0
05/06:00pm 11.2 8.0 4.9 65 3.0 S 11 11 6 6 1021.9 - 0.0
05/05:30pm 11.5 8.8 5.6 67 2.9 S 9 13 5 7 1021.5 - 0.0
05/05:00pm 12.1 8.3 5.9 66 3.1 SSW 15 17 8 9 1020.9 - 0.0
05/04:30pm 14.7 11.4 6.2 56 4.3 SW 13 15 7 8 1020.6 - 0.0
05/04:00pm 16.0 13.5 6.4 53 4.9 SW 9 15 5 8 1020.4 - 0.0
05/02:30pm 17.9 15.7 6.2 46 6.0 WSW 7 11 4 6 1019.4 - 0.0
05/02:00pm 17.2 14.6 5.9 47 5.8 N 9 19 5 10 1019.4 - 0.0
05/01:30pm 16.5 13.7 7.1 53 4.9 N 11 17 6 9 1019.5 - 0.0
05/01:00pm 16.0 12.2 6.0 51 5.1 N 15 20 8 11 1019.8 - 0.0
05/12:30pm 15.7 11.9 5.6 51 5.1 N 15 19 8 10 1020.2 - 0.0
05/12:00pm 16.1 12.5 4.8 47 5.6 N 13 20 7 11 1020.7 - 0.0
05/11:30am 14.9 10.4 4.2 48 5.2 NNE 17 20 9 11 1021.0 - 0.0
05/11:00am 14.8 10.8 4.9 51 4.9 NE 15 20 8 11 1020.9 - 0.0
05/10:30am 15.5 12.9 4.1 46 5.5 SE 7 11 4 6 1020.9 - 0.0
05/10:00am 14.9 12.4 1.5 40 6.1 SW 4 7 2 4 1020.3 - 0.0
05/09:30am 14.3 11.9 1.9 43 5.7 ESE 4 7 2 4 1020.2 - 0.0
05/09:00am 12.5 9.6 2.7 51 4.5 W 7 19 4 10 1019.9 - 5.4
05/08:30am 11.3 5.9 2.6 55 4.0 SW 20 26 11 14 1020.1 - 5.4
05/08:00am 11.4 8.7 3.7 59 3.6 SSW 7 15 4 8 1019.9 - 5.4
05/07:30am 10.6 8.4 3.5 61 3.3 WSW 4 9 2 5 1019.6 - 5.4
05/07:00am 9.3 4.7 3.7 68 2.6 SW 17 30 9 16 1019.1 - 5.4
05/06:30am 8.9 5.4 3.7 70 2.4 SW 11 19 6 10 1018.7 - 5.4
05/05:30am 9.3 5.9 4.0 69 2.5 SW 11 17 6 9 1018.1 - 5.4
05/05:00am 9.8 3.1 3.4 64 2.9 SW 28 39 15 21 1017.1 - 5.4
05/04:30am 9.8 2.2 3.8 66 2.8 SW 33 44 18 24 1016.6 - 5.4
05/04:00am 9.8 3.6 4.4 69 2.5 SW 26 32 14 17 1016.4 - 5.4
05/03:30am 10.0 4.2 4.6 69 2.5 SW 24 37 13 20 1016.6 - 5.4
05/03:00am 9.8 5.0 4.7 70 2.4 SW 19 22 10 12 1016.9 - 5.4
05/02:30am 9.9 4.6 4.8 70 2.4 SW 22 28 12 15 1017.3 - 5.4
05/02:00am 9.7 5.6 4.3 69 2.5 SW 15 24 8 13 1017.3 - 5.4
05/01:00am 9.9 5.4 4.4 68 2.6 SW 17 22 9 12 1017.6 - 5.4
05/12:30am 9.7 4.8 4.3 69 2.5 SW 19 22 10 12 1017.5 - 5.4
05/12:00am 9.5 4.6 4.1 69 2.5 SW 19 30 10 16 1017.7 - 5.4
 
Date/Time
EST
Temp
°C
App
Temp
°C
Dew
Point
°C
Rel
Hum
%
Delta-T
°C
Wind Press
QNH
hPa
Press
MSL
hPa
Rain since
9am
mm
Dir  Spd
km/h
Gust
km/h
Spd
kts
Gust
kts
04/11:30pm 9.9 4.1 4.2 67 2.7 SW 24 33 13 18 1017.7 - 5.4
04/11:00pm 9.6 5.5 4.5 70 2.4 WSW 15 19 8 10 1018.0 - 5.4
04/10:30pm 10.0 5.0 4.4 68 2.6 SW 20 30 11 16 1018.3 - 5.4
04/10:00pm 10.1 3.9 4.3 67 2.7 SW 26 37 14 20 1018.4 - 5.4
04/09:30pm 9.9 5.1 4.6 69 2.5 SW 19 24 10 13 1018.5 - 5.4
04/09:00pm 10.1 4.3 4.6 68 2.6 SW 24 30 13 16 1018.3 - 5.4
04/08:30pm 10.0 3.8 4.4 68 2.6 SW 26 32 14 17 1017.8 - 5.4
04/08:00pm 9.9 4.9 4.7 70 2.5 SW 20 28 11 15 1017.6 - 5.4
04/07:30pm 10.3 4.2 4.9 69 2.6 SW 26 32 14 17 1017.4 - 5.4
04/07:00pm 10.3 5.5 4.7 68 2.7 WSW 19 26 10 14 1017.4 - 5.4
04/06:30pm 10.3 5.9 4.9 69 2.6 WSW 17 19 9 10 1017.0 - 5.4

Other formats

Comma delimited format used in spreadsheet applications
http://www.bom.gov.au/fwo/IDN60801/IDN60801.99762.axf

JavaScript Object Notation format (JSON) in row-major order
http://www.bom.gov.au/fwo/IDN60801/IDN60801.99762.json

Data quality

Most of these data are generated automatically and are frequently updated. Quality checks on data are not normally performed. It is possible for incorrect values to appear. Refer to information at About Latest Weather Observations and please check the disclaimer before using these data.